Time;durP1;ratioP1;P1;durP2;ratioP2;P2;SDS_P1;SDS_P2;PMS_P1;PMS_P2;Temp;Humidity;BMP_temperature;BMP_pressure;BME280_temperature;BME280_humidity;BME280_pressure;Samples;Min_cycle;Max_cycle;Signal;HPM_P1;HPM_P2
2023/05/17 00:01:46;;;;;;;24.88;6.05;;;11.10;99.90;;;;;;5021708;28;20461;-73
2023/05/17 00:04:12;;;;;;;24.55;5.93;;;11.10;99.90;;;;;;5020339;28;20030;-75
2023/05/17 00:06:37;;;;;;;22.67;6.55;;;11.10;99.90;;;;;;5028970;28;20040;-73
2023/05/17 00:09:03;;;;;;;18.35;5.07;;;11.10;99.90;;;;;;5013429;28;20422;-73
2023/05/17 00:11:28;;;;;;;28.13;6.55;;;11.10;99.90;;;;;;5013457;28;20093;-72
2023/05/17 00:13:54;;;;;;;17.45;4.15;;;11.10;99.90;;;;;;5013329;28;20049;-72
2023/05/17 00:16:20;;;;;;;25.77;5.95;;;11.10;99.90;;;;;;5013207;28;20042;-72
2023/05/17 00:18:45;;;;;;;26.52;5.72;;;11.20;99.90;;;;;;5013244;28;20033;-75
2023/05/17 00:21:11;;;;;;;24.67;5.18;;;11.20;99.90;;;;;;5013024;28;20048;-73
2023/05/17 00:23:36;;;;;;;23.95;5.78;;;11.20;99.90;;;;;;5013173;28;20026;-76
2023/05/17 00:26:02;;;;;;;22.15;4.53;;;11.40;99.90;;;;;;5012925;28;20109;-73
2023/05/17 00:28:27;;;;;;;21.17;6.22;;;11.40;99.90;;;;;;5012902;28;20116;-72
2023/05/17 00:30:55;;;;;;;20.85;5.18;;;11.50;99.90;;;;;;5014133;28;20485;-73
2023/05/17 00:33:21;;;;;;;18.45;4.57;;;11.50;99.90;;;;;;5027815;28;20042;-73
2023/05/17 00:35:47;;;;;;;23.95;4.55;;;11.50;99.90;;;;;;5021359;28;20088;-74
2023/05/17 00:38:12;;;;;;;20.77;5.03;;;11.50;99.90;;;;;;5020120;28;20093;-78
2023/05/17 00:40:38;;;;;;;27.10;5.95;;;11.50;99.90;;;;;;5028125;28;20096;-73
2023/05/17 00:43:04;;;;;;;19.45;5.10;;;11.50;99.90;;;;;;5015876;28;20058;-74
2023/05/17 00:45:29;;;;;;;15.98;4.60;;;11.50;99.90;;;;;;5025442;28;20523;-73
2023/05/17 00:47:55;;;;;;;15.50;4.80;;;11.60;99.90;;;;;;5026192;28;20056;-74
2023/05/17 00:50:20;;;;;;;17.67;4.45;;;11.60;99.90;;;;;;5019061;28;20163;-73
2023/05/17 00:52:46;;;;;;;14.73;3.90;;;11.70;99.90;;;;;;5028910;28;20025;-76
2023/05/17 00:55:12;;;;;;;21.63;5.00;;;11.70;99.90;;;;;;5016264;28;20020;-73
2023/05/17 00:57:38;;;;;;;19.27;4.72;;;11.80;99.90;;;;;;5024888;28;20014;-73
2023/05/17 01:00:04;;;;;;;20.05;4.25;;;11.80;99.90;;;;;;5023134;28;20091;-73
2023/05/17 01:02:29;;;;;;;16.98;5.03;;;11.80;99.90;;;;;;5006317;28;20117;-77
2023/05/17 01:04:56;;;;;;;20.08;4.20;;;11.90;99.90;;;;;;5021492;28;20532;-73
2023/05/17 01:07:22;;;;;;;17.38;4.80;;;11.80;99.90;;;;;;5032419;28;20442;-74
2023/05/17 01:09:48;;;;;;;17.20;4.50;;;11.80;99.90;;;;;;5047626;28;20037;-75
2023/05/17 01:12:35;;;;;;;17.65;4.45;;;11.80;99.90;;;;;;5032481;28;20477;-72
2023/05/17 01:15:18;;;;;;;22.17;4.60;;;11.80;99.90;;;;;;5012389;28;20131;-75
2023/05/17 01:17:59;;;;;;;15.70;3.90;;;11.80;99.90;;;;;;4993537;28;20065;-77
2023/05/17 01:20:33;;;;;;;16.88;3.80;;;11.80;99.90;;;;;;5007802;28;20057;-73
2023/05/17 01:23:22;;;;;;;16.48;4.10;;;11.80;99.90;;;;;;4992971;28;20023;-73
2023/05/17 01:25:56;;;;;;;20.05;4.10;;;11.80;99.90;;;;;;4993031;28;20088;-73
2023/05/17 01:28:23;;;;;;;23.17;4.07;;;11.90;99.90;;;;;;5003213;28;20445;-73
2023/05/17 01:30:50;;;;;;;17.08;3.70;;;11.80;99.90;;;;;;5012695;28;20030;-74
2023/05/17 01:33:18;;;;;;;19.10;4.15;;;11.80;99.90;;;;;;5014012;28;20022;-73
2023/05/17 01:35:44;;;;;;;18.08;4.25;;;11.80;99.90;;;;;;5016373;28;20025;-73
2023/05/17 01:38:09;;;;;;;16.20;4.05;;;11.80;99.90;;;;;;5016473;28;20435;-73
2023/05/17 01:40:43;;;;;;;18.08;3.47;;;11.80;99.90;;;;;;5016588;28;20054;-73
2023/05/17 01:43:22;;;;;;;18.42;4.18;;;11.90;99.90;;;;;;5016735;28;20029;-71
2023/05/17 01:46:04;;;;;;;15.55;4.03;;;11.80;99.90;;;;;;5005147;28;20026;-74
2023/05/17 01:48:43;;;;;;;18.50;4.00;;;11.90;99.90;;;;;;5016400;28;20046;-72
2023/05/17 01:51:12;;;;;;;11.25;3.08;;;11.90;99.90;;;;;;5016050;28;20041;-75
2023/05/17 01:53:44;;;;;;;19.52;4.30;;;11.80;99.90;;;;;;5016255;28;20073;-73
2023/05/17 01:56:15;;;;;;;15.40;3.40;;;11.90;99.90;;;;;;5016148;28;20047;-74
2023/05/17 01:58:47;;;;;;;17.50;3.80;;;11.90;99.90;;;;;;5016042;28;20584;-74
2023/05/17 02:01:18;;;;;;;14.93;3.85;;;11.80;99.90;;;;;;5016148;28;20030;-72
2023/05/17 02:03:47;;;;;;;10.60;2.88;;;11.80;99.90;;;;;;5030776;28;20117;-73
2023/05/17 02:06:12;;;;;;;16.40;4.03;;;11.80;99.90;;;;;;5015755;28;20030;-72
2023/05/17 02:08:38;;;;;;;17.35;3.15;;;11.80;99.90;;;;;;5014794;28;20434;-74
2023/05/17 02:11:04;;;;;;;15.02;3.25;;;11.80;99.90;;;;;;5030496;28;20096;-77
2023/05/17 02:13:29;;;;;;;19.52;3.58;;;11.80;99.90;;;;;;5016160;28;20045;-73
2023/05/17 02:16:00;;;;;;;14.63;3.33;;;11.80;99.90;;;;;;5023577;28;20044;-74
2023/05/17 02:18:25;;;;;;;13.60;3.40;;;11.70;99.90;;;;;;5029764;28;20056;-73
2023/05/17 02:20:51;;;;;;;17.40;3.15;;;11.70;99.90;;;;;;5018697;28;20442;-73
2023/05/17 02:23:16;;;;;;;14.52;3.40;;;11.70;99.90;;;;;;5029400;28;20072;-72
2023/05/17 02:25:42;;;;;;;15.73;2.67;;;11.60;99.90;;;;;;5017679;28;20026;-75
2023/05/17 02:28:07;;;;;;;21.67;3.70;;;11.50;99.90;;;;;;5025444;28;20037;-77
2023/05/17 02:30:33;;;;;;;13.50;3.20;;;11.50;99.90;;;;;;5030850;28;20061;-72
2023/05/17 02:32:58;;;;;;;14.88;3.78;;;11.50;99.90;;;;;;5016870;28;20159;-73
2023/05/17 02:35:24;;;;;;;21.73;3.60;;;11.40;99.90;;;;;;5009800;28;20052;-73
2023/05/17 02:37:49;;;;;;;21.65;3.95;;;11.40;99.90;;;;;;5024325;28;20026;-72
2023/05/17 02:40:15;;;;;;;21.20;3.40;;;11.40;99.90;;;;;;5025799;28;20108;-75
2023/05/17 02:42:41;;;;;;;18.10;3.42;;;11.30;99.90;;;;;;5014941;28;20038;-74
2023/05/17 02:45:07;;;;;;;20.92;4.22;;;11.30;99.90;;;;;;5009955;28;20475;-74
2023/05/17 02:47:32;;;;;;;16.77;3.20;;;11.20;99.90;;;;;;5009370;28;20505;-78
2023/05/17 02:49:58;;;;;;;20.35;3.65;;;11.20;99.90;;;;;;5008208;28;20057;-77
2023/05/17 02:52:23;;;;;;;16.73;2.70;;;11.20;99.90;;;;;;5007599;28;20036;-74
2023/05/17 02:54:49;;;;;;;21.20;4.32;;;11.10;99.90;;;;;;5011439;28;20038;-71
2023/05/17 02:57:15;;;;;;;20.92;2.67;;;11.10;99.90;;;;;;5010442;28;20084;-73
2023/05/17 02:59:40;;;;;;;20.65;3.33;;;11.00;99.90;;;;;;5008047;28;20121;-75
2023/05/17 03:02:06;;;;;;;19.85;3.25;;;10.90;99.90;;;;;;5009492;28;20359;-74
2023/05/17 03:04:32;;;;;;;21.48;2.65;;;10.90;99.90;;;;;;5009494;28;20578;-71
2023/05/17 03:06:58;;;;;;;25.83;3.72;;;10.80;99.90;;;;;;5014534;28;20079;-73
2023/05/17 03:09:23;;;;;;;16.00;2.83;;;10.70;99.90;;;;;;5009256;28;20046;-74
2023/05/17 03:11:49;;;;;;;18.25;3.30;;;10.70;99.90;;;;;;5007165;28;20037;-75
2023/05/17 03:14:15;;;;;;;21.45;3.22;;;10.60;99.90;;;;;;5008628;28;20045;-76
2023/05/17 03:16:41;;;;;;;14.70;2.50;;;10.50;99.90;;;;;;5009519;28;20023;-75
2023/05/17 03:19:06;;;;;;;18.33;2.72;;;10.50;99.90;;;;;;5010253;28;20037;-71
2023/05/17 03:21:32;;;;;;;13.40;2.90;;;10.40;99.90;;;;;;5008955;28;20090;-73
2023/05/17 03:23:57;;;;;;;19.02;2.97;;;10.40;99.90;;;;;;5006238;28;20022;-72
2023/05/17 03:26:23;;;;;;;15.55;2.78;;;10.30;99.90;;;;;;5007402;28;20018;-75
2023/05/17 03:28:49;;;;;;;18.15;3.17;;;10.20;99.90;;;;;;5010933;28;20410;-77
2023/05/17 03:31:16;;;;;;;17.85;2.95;;;10.10;99.90;;;;;;5009623;28;20026;-71
2023/05/17 03:33:41;;;;;;;18.45;3.33;;;10.10;99.90;;;;;;5007105;28;20484;-77
2023/05/17 03:36:07;;;;;;;20.08;3.00;;;10.00;99.90;;;;;;5008769;28;20026;-76
2023/05/17 03:38:33;;;;;;;15.00;3.20;;;9.90;99.90;;;;;;5006551;28;20122;-74
2023/05/17 03:40:58;;;;;;;20.50;3.50;;;9.90;99.90;;;;;;5011162;28;20128;-76
2023/05/17 03:43:24;;;;;;;16.45;3.03;;;9.80;99.90;;;;;;5009379;28;20445;-74
2023/05/17 03:45:50;;;;;;;18.63;3.17;;;9.80;99.90;;;;;;5006252;28;20034;-73
2023/05/17 03:48:15;;;;;;;19.33;3.25;;;9.70;99.90;;;;;;5007753;28;20040;-76
2023/05/17 03:50:41;;;;;;;21.73;3.55;;;9.70;99.90;;;;;;5008877;28;20034;-78
2023/05/17 03:53:08;;;;;;;14.05;3.10;;;9.70;99.90;;;;;;5009019;28;20415;-74
2023/05/17 03:55:33;;;;;;;27.33;3.50;;;9.70;99.90;;;;;;5007932;28;20124;-76
2023/05/17 03:57:59;;;;;;;15.68;3.33;;;9.70;99.90;;;;;;5006231;28;20105;-77
2023/05/17 04:00:25;;;;;;;16.80;3.05;;;9.70;99.90;;;;;;5006014;28;20488;-77
2023/05/17 04:02:50;;;;;;;18.38;3.50;;;9.70;99.90;;;;;;5012879;28;20061;-75
2023/05/17 04:05:17;;;;;;;14.20;2.78;;;9.70;99.90;;;;;;5011084;28;20449;-72
2023/05/17 04:07:43;;;;;;;18.00;3.13;;;9.70;99.90;;;;;;5006365;28;20045;-72
2023/05/17 04:10:09;;;;;;;15.77;3.10;;;9.70;99.90;;;;;;5012153;28;20494;-72
2023/05/17 04:12:35;;;;;;;18.40;3.83;;;9.70;99.90;;;;;;5022415;28;20048;-74
2023/05/17 04:15:02;;;;;;;16.23;3.03;;;9.70;99.90;;;;;;5017154;28;20463;-73
2023/05/17 04:17:27;;;;;;;20.08;2.95;;;9.70;99.90;;;;;;5018272;28;20030;-75
2023/05/17 04:19:53;;;;;;;21.95;3.63;;;9.70;99.90;;;;;;5014973;28;20030;-73
2023/05/17 04:22:22;;;;;;;17.45;3.45;;;9.80;99.90;;;;;;5013723;28;20054;-75
2023/05/17 04:24:47;;;;;;;20.75;3.58;;;9.90;99.90;;;;;;5013631;28;20105;-72
2023/05/17 04:27:13;;;;;;;18.27;3.63;;;9.90;99.90;;;;;;5013842;28;20017;-73
2023/05/17 04:29:39;;;;;;;17.77;3.58;;;10.00;99.90;;;;;;5012168;28;20037;-73
2023/05/17 04:32:06;;;;;;;20.98;3.60;;;10.10;99.90;;;;;;5014808;28;20057;-76
2023/05/17 04:34:32;;;;;;;17.60;3.22;;;10.10;99.90;;;;;;5014594;28;20037;-76
2023/05/17 04:36:57;;;;;;;20.40;4.28;;;10.20;99.90;;;;;;5012923;28;20022;-75
2023/05/17 04:39:23;;;;;;;19.92;3.50;;;10.20;99.90;;;;;;5013242;28;20052;-74
2023/05/17 04:41:49;;;;;;;17.60;3.47;;;10.40;99.90;;;;;;5014228;28;20061;-75
2023/05/17 04:44:15;;;;;;;14.23;3.05;;;10.50;99.90;;;;;;5015239;28;20026;-76
2023/05/17 04:46:42;;;;;;;14.05;3.22;;;10.60;99.90;;;;;;5020701;28;20084;-72
2023/05/17 04:49:08;;;;;;;17.63;3.20;;;10.60;99.90;;;;;;5015019;28;20065;-77
2023/05/17 04:51:34;;;;;;;22.90;4.28;;;10.70;99.90;;;;;;5017841;28;20070;-74
2023/05/17 04:53:59;;;;;;;16.30;3.28;;;10.70;99.90;;;;;;5016931;28;20026;-75
2023/05/17 04:56:26;;;;;;;12.13;2.67;;;10.90;99.90;;;;;;5015752;28;20033;-75
2023/05/17 04:58:52;;;;;;;17.13;3.58;;;11.00;99.90;;;;;;5016125;28;20033;-72
2023/05/17 05:01:17;;;;;;;18.17;3.55;;;11.20;99.90;;;;;;5006807;28;20037;-74
2023/05/17 05:03:43;;;;;;;15.30;3.35;;;11.30;99.90;;;;;;5030417;28;20109;-74
2023/05/17 05:06:09;;;;;;;14.20;2.75;;;11.40;99.90;;;;;;5014911;28;20041;-77
2023/05/17 05:08:34;;;;;;;16.67;2.50;;;11.50;99.90;;;;;;5030209;28;20055;-78
2023/05/17 05:11:00;;;;;;;14.55;2.58;;;11.60;99.90;;;;;;5017258;28;20022;-73
2023/05/17 05:13:25;;;;;;;19.35;3.00;;;11.70;99.90;;;;;;5015304;28;20026;-73
2023/05/17 05:15:51;;;;;;;11.40;2.20;;;11.80;99.90;;;;;;5015469;28;20084;-73
2023/05/17 05:18:17;;;;;;;15.10;2.70;;;12.00;99.90;;;;;;5015814;28;20026;-75
2023/05/17 05:20:42;;;;;;;19.65;3.05;;;12.20;99.90;;;;;;5017824;28;20025;-76
2023/05/17 05:23:08;;;;;;;15.77;2.33;;;12.40;99.90;;;;;;5016096;28;20026;-75
2023/05/17 05:25:34;;;;;;;14.45;2.22;;;12.70;99.90;;;;;;5015244;28;20029;-75
2023/05/17 05:28:00;;;;;;;15.63;2.33;;;12.90;99.90;;;;;;5015059;28;20025;-72
2023/05/17 05:30:25;;;;;;;14.05;2.10;;;12.90;99.90;;;;;;5030710;28;20084;-73
2023/05/17 05:32:51;;;;;;;14.13;2.22;;;13.00;99.90;;;;;;5017799;28;20029;-73
2023/05/17 05:35:17;;;;;;;12.10;1.77;;;13.00;99.90;;;;;;5014510;28;20036;-73
2023/05/17 05:37:44;;;;;;;14.57;2.10;;;13.00;99.90;;;;;;5015455;28;20450;-73
2023/05/17 05:40:10;;;;;;;9.55;1.08;;;13.00;99.90;;;;;;5030225;28;20050;-74
2023/05/17 05:42:37;;;;;;;13.77;2.63;;;13.00;99.90;;;;;;5028538;28;20136;-73
2023/05/17 05:45:03;;;;;;;11.68;2.25;;;13.10;99.90;;;;;;5027383;28;20137;-72
2023/05/17 05:47:28;;;;;;;16.40;2.33;;;13.30;99.90;;;;;;5041559;28;20077;-73
2023/05/17 05:49:54;;;;;;;13.30;2.60;;;13.40;99.90;;;;;;5015248;28;20116;-73
2023/05/17 05:52:19;;;;;;;15.15;2.80;;;13.60;99.90;;;;;;5026322;28;20025;-74
2023/05/17 05:54:45;;;;;;;12.10;2.10;;;14.00;99.90;;;;;;5025338;28;20099;-74
2023/05/17 05:57:10;;;;;;;13.57;2.50;;;14.20;99.90;;;;;;5028124;28;20017;-73
2023/05/17 05:59:36;;;;;;;14.60;2.72;;;14.70;99.90;;;;;;5028398;28;20100;-73
2023/05/17 06:02:02;;;;;;;11.90;2.15;;;15.30;99.80;;;;;;5019469;28;20062;-73
2023/05/17 06:04:28;;;;;;;14.25;2.00;;;15.70;99.00;;;;;;5015522;28;20041;-73
2023/05/17 06:06:54;;;;;;;6.00;1.77;;;16.00;97.80;;;;;;5032499;28;20029;-73
2023/05/17 06:09:19;;;;;;;12.65;2.10;;;16.20;97.80;;;;;;5014974;28;20390;-72
2023/05/17 06:11:45;;;;;;;15.23;2.60;;;16.50;96.80;;;;;;5015114;28;20474;-73
2023/05/17 06:14:10;;;;;;;10.07;2.00;;;16.40;97.10;;;;;;5015273;28;20386;-74
2023/05/17 06:16:36;;;;;;;10.57;1.85;;;16.30;97.10;;;;;;5014933;28;20461;-73
2023/05/17 06:19:02;;;;;;;6.65;2.22;;;16.10;97.40;;;;;;5016635;28;20038;-73
2023/05/17 06:21:28;;;;;;;12.60;2.65;;;15.90;97.70;;;;;;5022551;28;20025;-72
2023/05/17 06:23:53;;;;;;;12.13;2.58;;;16.10;98.00;;;;;;5027039;28;20034;-73
2023/05/17 06:26:19;;;;;;;10.63;2.15;;;16.80;97.40;;;;;;5019597;28;20038;-74
2023/05/17 06:28:44;;;;;;;7.93;1.60;;;18.30;96.80;;;;;;5022546;28;20132;-73
2023/05/17 06:31:10;;;;;;;9.23;1.50;;;19.90;94.40;;;;;;5027750;28;20036;-73
2023/05/17 06:33:36;;;;;;;8.25;1.67;;;21.40;92.20;;;;;;5017358;28;20107;-73
2023/05/17 06:36:01;;;;;;;8.65;1.40;;;22.00;88.20;;;;;;5028167;28;20033;-74
2023/05/17 06:38:27;;;;;;;11.82;2.10;;;22.30;87.00;;;;;;5017591;28;20105;-73
2023/05/17 06:40:54;;;;;;;13.45;1.60;;;22.50;85.40;;;;;;5030794;28;20045;-73
2023/05/17 06:43:20;;;;;;;11.02;1.92;;;22.50;85.40;;;;;;5022466;28;20030;-74
2023/05/17 06:45:45;;;;;;;5.65;1.25;;;22.80;85.20;;;;;;5023676;28;20041;-73
2023/05/17 06:48:11;;;;;;;9.32;1.90;;;22.70;82.20;;;;;;5020371;28;20470;-73
2023/05/17 06:50:37;;;;;;;10.68;2.08;;;21.80;84.00;;;;;;5016301;28;20048;-75
2023/05/17 06:53:03;;;;;;;9.32;1.92;;;21.30;84.50;;;;;;5031931;28;20473;-72
2023/05/17 06:55:29;;;;;;;7.50;1.25;;;21.20;84.90;;;;;;5018702;28;20493;-73
2023/05/17 06:57:55;;;;;;;9.73;1.55;;;21.40;83.90;;;;;;5021639;28;20466;-73
2023/05/17 07:00:21;;;;;;;8.98;1.92;;;21.20;84.40;;;;;;5029135;28;20091;-73
2023/05/17 07:02:47;;;;;;;12.10;3.55;;;21.60;83.30;;;;;;5035340;28;20108;-74
2023/05/17 07:05:12;;;;;;;10.60;1.95;;;22.00;82.00;;;;;;5027977;28;20466;-73
2023/05/17 07:07:38;;;;;;;8.32;2.00;;;22.00;80.30;;;;;;5012745;28;20510;-73
2023/05/17 07:10:05;;;;;;;7.90;1.40;;;21.50;81.40;;;;;;5027347;28;20037;-73
2023/05/17 07:12:30;;;;;;;15.23;2.15;;;21.00;82.10;;;;;;5031335;28;20034;-73
2023/05/17 07:14:56;;;;;;;12.40;2.65;;;20.80;82.70;;;;;;5021861;28;20033;-73
2023/05/17 07:17:21;;;;;;;12.18;3.00;;;21.20;83.00;;;;;;5021852;28;20029;-73
2023/05/17 07:19:50;;;;;;;7.70;1.30;;;21.30;82.10;;;;;;5021012;28;20034;-73
2023/05/17 07:22:17;;;;;;;9.57;2.85;;;21.20;82.30;;;;;;5028113;28;20521;-72
2023/05/17 07:24:43;;;;;;;11.98;3.13;;;21.30;82.60;;;;;;5021497;28;20087;-72
2023/05/17 07:27:09;;;;;;;7.93;2.00;;;21.60;82.00;;;;;;5027345;28;20025;-72
2023/05/17 07:29:34;;;;;;;9.23;2.15;;;21.40;82.60;;;;;;5024401;28;20536;-73
2023/05/17 07:32:00;;;;;;;10.13;1.73;;;21.00;82.50;;;;;;5027093;28;20033;-73
2023/05/17 07:34:26;;;;;;;13.15;3.60;;;20.40;83.60;;;;;;5030362;28;20026;-73
2023/05/17 07:36:51;;;;;;;12.98;2.75;;;19.70;84.30;;;;;;5013712;28;20428;-72
2023/05/17 07:39:17;;;;;;;9.05;1.98;;;19.00;85.70;;;;;;5020235;28;20510;-72
2023/05/17 07:41:42;;;;;;;13.40;2.70;;;18.60;87.00;;;;;;5023138;28;20071;-72
2023/05/17 07:44:08;;;;;;;14.02;2.75;;;18.30;89.20;;;;;;5027799;28;20099;-74
2023/05/17 07:46:33;;;;;;;10.27;2.03;;;18.40;89.60;;;;;;5016093;28;20112;-72
2023/05/17 07:48:59;;;;;;;12.00;2.40;;;18.40;89.10;;;;;;5028811;28;20042;-73
2023/05/17 07:51:25;;;;;;;14.18;2.33;;;18.30;89.80;;;;;;5023546;28;20034;-73
2023/05/17 07:53:51;;;;;;;9.63;2.00;;;18.30;90.10;;;;;;5023860;28;20041;-72
2023/05/17 07:56:16;;;;;;;9.88;1.85;;;18.30;90.30;;;;;;5016249;28;20030;-73
2023/05/17 07:58:42;;;;;;;13.35;2.00;;;18.50;88.80;;;;;;5028442;28;20026;-73
2023/05/17 08:01:08;;;;;;;11.52;2.17;;;18.50;89.00;;;;;;5015790;28;20048;-73
2023/05/17 08:03:35;;;;;;;12.90;2.17;;;18.70;88.20;;;;;;5012003;28;20017;-73
2023/05/17 08:06:00;;;;;;;5.85;1.42;;;18.70;88.10;;;;;;5011110;28;20021;-73
2023/05/17 08:08:26;;;;;;;11.07;2.10;;;18.70;87.50;;;;;;5013832;28;20529;-73
2023/05/17 08:10:52;;;;;;;11.38;2.05;;;18.70;88.20;;;;;;5016286;28;20033;-73
2023/05/17 08:13:17;;;;;;;8.75;2.05;;;19.00;87.90;;;;;;5011263;28;20105;-74
2023/05/17 08:15:43;;;;;;;7.53;1.40;;;19.40;86.70;;;;;;5010959;28;20050;-73
2023/05/17 08:18:09;;;;;;;16.63;3.38;;;19.40;86.00;;;;;;5013530;28;20093;-73
2023/05/17 08:20:35;;;;;;;8.18;2.00;;;19.20;86.50;;;;;;5014820;28;20392;-73
2023/05/17 08:23:00;;;;;;;15.77;2.95;;;19.10;87.60;;;;;;5022762;28;20029;-73
2023/05/17 08:25:26;;;;;;;10.77;2.53;;;19.60;86.90;;;;;;5024678;28;20033;-72
2023/05/17 08:27:52;;;;;;;6.18;1.60;;;20.70;84.40;;;;;;5018273;28;20034;-73
2023/05/17 08:30:17;;;;;;;9.10;1.95;;;21.60;81.90;;;;;;5011976;28;20121;-73
2023/05/17 08:32:44;;;;;;;9.23;1.98;;;21.60;80.50;;;;;;5018384;28;20022;-72
2023/05/17 08:35:10;;;;;;;9.25;1.75;;;21.10;81.00;;;;;;5027035;28;20037;-72
2023/05/17 08:37:35;;;;;;;7.38;1.92;;;20.70;82.60;;;;;;5021801;28;20032;-73
2023/05/17 08:40:03;;;;;;;10.15;1.92;;;21.60;81.90;;;;;;5019430;28;20054;-73
2023/05/17 08:42:29;;;;;;;4.72;1.38;;;23.00;78.40;;;;;;5026465;28;20034;-74
2023/05/17 08:44:55;;;;;;;7.95;1.70;;;24.50;76.70;;;;;;5027694;28;20034;-73
2023/05/17 08:47:24;;;;;;;11.23;1.83;;;25.70;74.30;;;;;;5017489;28;20075;-74
2023/05/17 08:49:53;;;;;;;8.75;1.83;;;26.50;71.70;;;;;;5020336;28;20041;-74
2023/05/17 08:52:20;;;;;;;5.85;1.38;;;27.30;70.60;;;;;;5014676;28;20034;-73
2023/05/17 08:54:46;;;;;;;11.63;2.47;;;27.60;67.90;;;;;;5024310;28;20025;-73
2023/05/17 08:57:13;;;;;;;8.10;1.92;;;27.90;66.90;;;;;;5040339;28;20167;-73
2023/05/17 08:59:38;;;;;;;11.38;1.92;;;28.20;66.20;;;;;;5022349;28;20018;-73
2023/05/17 09:02:05;;;;;;;9.25;2.22;;;28.70;65.80;;;;;;5013088;28;20026;-73
2023/05/17 09:04:30;;;;;;;9.57;2.53;;;29.50;64.60;;;;;;5028837;28;20373;-75
2023/05/17 09:06:56;;;;;;;9.95;2.35;;;30.20;63.90;;;;;;5004831;28;20037;-74
2023/05/17 09:09:22;;;;;;;6.05;1.77;;;31.00;62.20;;;;;;5018190;28;20041;-74
2023/05/17 09:11:48;;;;;;;12.70;2.13;;;31.10;61.30;;;;;;5023556;28;20037;-73
2023/05/17 09:14:16;;;;;;;12.27;2.67;;;30.60;60.70;;;;;;5026890;28;20529;-72
2023/05/17 09:16:42;;;;;;;10.75;2.30;;;30.00;60.80;;;;;;5015487;28;20088;-74
2023/05/17 09:19:15;;;;;;;9.38;2.03;;;29.90;60.40;;;;;;5025951;28;20076;-73
2023/05/17 09:21:46;;;;;;;9.73;1.88;;;29.60;60.70;;;;;;5038075;28;20033;-73
2023/05/17 09:24:11;;;;;;;7.53;1.73;;;29.50;61.20;;;;;;5017375;28;20018;-74
2023/05/17 09:26:43;;;;;;;7.25;1.50;;;29.90;60.70;;;;;;5028497;28;20040;-73
2023/05/17 09:29:15;;;;;;;8.80;1.95;;;30.30;59.30;;;;;;5018713;28;20061;-71
2023/05/17 09:31:41;;;;;;;10.38;1.75;;;30.30;59.60;;;;;;5030933;28;20037;-73
2023/05/17 09:34:07;;;;;;;8.15;2.08;;;29.90;59.30;;;;;;5017988;28;20371;-73
2023/05/17 09:36:36;;;;;;;10.93;1.70;;;29.30;60.50;;;;;;5028620;28;20029;-73
2023/05/17 09:39:04;;;;;;;6.50;1.92;;;29.60;60.40;;;;;;5017148;28;20050;-72
2023/05/17 09:41:31;;;;;;;9.93;2.50;;;30.00;60.70;;;;;;5022837;28;20079;-73
2023/05/17 09:43:59;;;;;;;8.45;1.90;;;30.40;59.90;;;;;;5017873;28;20026;-72
2023/05/17 09:46:25;;;;;;;9.90;1.90;;;30.90;59.30;;;;;;5020603;28;20029;-75
2023/05/17 09:48:55;;;;;;;9.82;1.88;;;31.20;58.70;;;;;;5031041;28;20045;-72
2023/05/17 09:51:48;;;;;;;11.27;2.08;;;31.10;58.70;;;;;;5023716;28;20423;-73
2023/05/17 09:54:13;;;;;;;10.73;2.40;;;31.30;59.20;;;;;;5017600;28;20041;-75
2023/05/17 09:56:39;;;;;;;8.77;1.48;;;31.30;59.00;;;;;;5019031;28;20018;-74
2023/05/17 09:59:13;;;;;;;8.90;1.98;;;31.10;58.40;;;;;;5030273;28;20424;-73
2023/05/17 10:01:46;;;;;;;6.47;1.98;;;30.80;58.50;;;;;;5025594;28;20436;-73
2023/05/17 10:04:12;;;;;;;12.30;3.03;;;30.60;58.30;;;;;;5021050;28;20034;-72
2023/05/17 10:06:44;;;;;;;12.30;2.45;;;30.50;58.80;;;;;;5032069;28;20025;-72
2023/05/17 10:09:12;;;;;;;10.20;2.20;;;30.80;58.70;;;;;;5021848;28;20044;-71
2023/05/17 10:11:40;;;;;;;10.98;3.22;;;31.00;58.80;;;;;;5024195;28;20021;-72
2023/05/17 10:14:27;;;;;;;9.07;1.98;;;30.80;58.70;;;;;;5017686;28;20123;-72
2023/05/17 10:16:53;;;;;;;9.35;2.50;;;30.70;58.30;;;;;;5011387;28;20037;-73
2023/05/17 10:19:20;;;;;;;11.80;2.45;;;30.80;58.80;;;;;;5041849;28;20425;-73
2023/05/17 10:21:48;;;;;;;10.63;2.15;;;30.80;57.60;;;;;;5030500;28;20481;-72
2023/05/17 10:24:15;;;;;;;10.48;2.20;;;30.80;57.80;;;;;;5024839;28;20505;-73
2023/05/17 10:26:41;;;;;;;9.77;1.92;;;30.80;57.70;;;;;;5029644;28;20033;-73
2023/05/17 10:29:07;;;;;;;9.13;2.47;;;30.80;57.60;;;;;;5030199;28;20400;-74
2023/05/17 10:31:33;;;;;;;9.05;2.17;;;31.10;57.40;;;;;;5027604;28;20040;-74
2023/05/17 10:34:04;;;;;;;9.80;1.98;;;30.90;57.00;;;;;;5025693;28;20513;-73
2023/05/17 10:36:31;;;;;;;10.85;2.17;;;30.50;56.90;;;;;;5028074;28;20026;-75
2023/05/17 10:38:59;;;;;;;9.48;1.90;;;30.50;57.50;;;;;;5025537;28;20162;-74
2023/05/17 10:41:29;;;;;;;12.70;1.73;;;30.60;57.30;;;;;;5025939;28;20038;-73
2023/05/17 10:43:55;;;;;;;7.18;1.83;;;30.70;56.80;;;;;;5024008;28;20477;-73
2023/05/17 10:46:22;;;;;;;10.27;2.13;;;30.60;56.80;;;;;;5017094;28;20103;-72
2023/05/17 10:48:52;;;;;;;7.50;2.08;;;30.80;56.90;;;;;;5019193;28;20025;-73
2023/05/17 10:51:23;;;;;;;6.65;2.00;;;31.10;57.00;;;;;;5017398;28;20030;-73
2023/05/17 10:54:17;;;;;;;9.07;1.43;;;31.50;56.20;;;;;;5017238;28;20068;-73
2023/05/17 10:56:51;;;;;;;12.18;2.35;;;31.10;56.00;;;;;;5016841;28;20418;-72
2023/05/17 10:59:25;;;;;;;10.88;1.83;;;30.50;56.50;;;;;;5016520;28;20072;-74
2023/05/17 11:02:08;;;;;;;9.93;2.33;;;30.30;57.10;;;;;;5016321;28;20390;-72
2023/05/17 11:04:40;;;;;;;7.80;1.70;;;30.30;57.10;;;;;;5018187;28;20033;-72
2023/05/17 11:07:18;;;;;;;9.82;2.10;;;30.50;56.80;;;;;;5016277;28;20592;-72
2023/05/17 11:09:45;;;;;;;9.55;2.38;;;30.70;57.00;;;;;;5026054;28;20124;-74
2023/05/17 11:12:13;;;;;;;10.57;3.25;;;31.00;56.30;;;;;;5034422;28;20466;-72
2023/05/17 11:14:44;;;;;;;10.70;2.50;;;31.20;55.80;;;;;;5021891;28;20029;-73
2023/05/17 11:17:20;;;;;;;13.05;2.40;;;31.50;55.70;;;;;;5019982;28;20144;-72
2023/05/17 11:19:58;;;;;;;10.15;2.30;;;31.70;55.20;;;;;;5021263;28;20030;-74
2023/05/17 11:22:24;;;;;;;7.35;1.85;;;31.80;55.10;;;;;;5021547;28;20057;-77
2023/05/17 11:24:52;;;;;;;6.75;1.73;;;31.00;55.00;;;;;;5020477;28;20140;-71
2023/05/17 11:27:25;;;;;;;8.48;2.20;;;30.30;55.60;;;;;;5022795;28;20034;-71
2023/05/17 11:29:55;;;;;;;12.13;2.28;;;29.70;55.70;;;;;;5021754;28;20052;-72
2023/05/17 11:32:28;;;;;;;9.32;1.75;;;29.70;56.10;;;;;;5033305;28;20061;-72
2023/05/17 11:34:54;;;;;;;8.73;1.90;;;29.90;55.60;;;;;;5033034;28;20382;-74
2023/05/17 11:37:29;;;;;;;8.88;2.00;;;29.80;55.80;;;;;;5021911;28;20029;-73
2023/05/17 11:40:05;;;;;;;7.82;1.90;;;29.90;56.00;;;;;;5021340;28;20129;-72
2023/05/17 11:42:30;;;;;;;13.48;2.67;;;30.40;56.10;;;;;;5030065;28;20446;-72
2023/05/17 11:44:57;;;;;;;12.88;2.22;;;30.80;55.50;;;;;;5018478;28;20069;-75
2023/05/17 11:47:22;;;;;;;10.93;1.85;;;31.40;55.50;;;;;;5022259;28;20022;-72
2023/05/17 11:49:51;;;;;;;9.55;2.05;;;31.60;54.10;;;;;;5029680;28;20042;-74
2023/05/17 11:52:17;;;;;;;9.00;1.55;;;31.00;54.40;;;;;;5028897;28;20436;-72
2023/05/17 11:54:45;;;;;;;7.22;1.85;;;30.40;54.90;;;;;;5017557;28;20030;-74
2023/05/17 11:57:15;;;;;;;9.25;1.67;;;30.30;54.80;;;;;;5019189;28;20038;-71
2023/05/17 11:59:42;;;;;;;8.23;1.60;;;30.20;54.70;;;;;;5016083;28;20388;-72
2023/05/17 12:02:08;;;;;;;8.15;1.60;;;29.40;55.10;;;;;;5017048;28;20117;-71
2023/05/17 12:04:37;;;;;;;6.55;1.70;;;28.70;56.10;;;;;;5030804;28;20025;-72
2023/05/17 12:07:07;;;;;;;5.97;1.60;;;28.50;55.90;;;;;;5026200;28;20466;-74
2023/05/17 12:09:33;;;;;;;11.02;1.80;;;28.20;56.30;;;;;;5011528;28;20450;-70
2023/05/17 12:12:03;;;;;;;11.82;1.80;;;27.90;56.50;;;;;;5018910;28;20068;-72
2023/05/17 12:14:29;;;;;;;5.65;1.80;;;27.10;57.00;;;;;;5012446;28;20105;-72
2023/05/17 12:16:58;;;;;;;6.43;1.90;;;26.80;57.40;;;;;;5019073;28;20109;-72
2023/05/17 12:19:25;;;;;;;6.45;1.50;;;27.30;57.30;;;;;;5021464;28;20525;-76
2023/05/17 12:21:51;;;;;;;13.85;2.50;;;28.00;57.20;;;;;;5023282;28;20044;-75
2023/05/17 12:24:17;;;;;;;7.88;2.40;;;28.50;57.30;;;;;;5025301;28;20029;-75
2023/05/17 12:26:44;;;;;;;12.70;2.25;;;28.90;56.80;;;;;;5022329;28;20764;-72
2023/05/17 12:29:10;;;;;;;8.32;2.38;;;29.10;57.00;;;;;;5020887;28;20026;-75
2023/05/17 12:31:39;;;;;;;9.07;2.22;;;29.10;57.10;;;;;;5023175;28;20108;-73
2023/05/17 12:34:06;;;;;;;10.73;1.77;;;29.10;57.10;;;;;;5020265;28;20030;-73
2023/05/17 12:36:32;;;;;;;11.07;2.17;;;28.80;57.50;;;;;;5018862;28;20044;-73
2023/05/17 12:39:00;;;;;;;11.85;1.85;;;28.50;57.00;;;;;;5034323;28;20410;-71
2023/05/17 12:41:26;;;;;;;10.02;1.90;;;27.50;58.20;;;;;;5015758;28;20038;-73